sensor_id;sensor_type;location;lat;lon;timestamp;P1;durP1;ratioP1;P2;durP2;ratioP2
63581;SDS011;49727;51.078;17.066;2023-02-23T00:10:44;17.08;;;9.95;;
63581;SDS011;49727;51.078;17.066;2023-02-23T00:25:44;24.63;;;10.77;;
63581;SDS011;49727;51.078;17.066;2023-02-23T00:40:44;24.30;;;11.68;;
63581;SDS011;49727;51.078;17.066;2023-02-23T00:55:45;26.08;;;10.68;;
63581;SDS011;49727;51.078;17.066;2023-02-23T01:10:45;25.25;;;11.68;;
63581;SDS011;49727;51.078;17.066;2023-02-23T01:25:52;19.58;;;10.30;;
63581;SDS011;49727;51.078;17.066;2023-02-23T01:40:53;30.45;;;12.85;;
63581;SDS011;49727;51.078;17.066;2023-02-23T01:55:56;22.80;;;10.98;;
63581;SDS011;49727;51.078;17.066;2023-02-23T02:11:00;22.70;;;10.60;;
63581;SDS011;49727;51.078;17.066;2023-02-23T02:56:35;23.75;;;11.90;;
63581;SDS011;49727;51.078;17.066;2023-02-23T03:11:40;21.70;;;12.20;;
63581;SDS011;49727;51.078;17.066;2023-02-23T03:27:10;31.92;;;13.30;;
63581;SDS011;49727;51.078;17.066;2023-02-23T03:42:51;27.73;;;11.82;;
63581;SDS011;49727;51.078;17.066;2023-02-23T03:58:16;19.90;;;12.40;;
63581;SDS011;49727;51.078;17.066;2023-02-23T04:13:40;27.08;;;13.60;;
63581;SDS011;49727;51.078;17.066;2023-02-23T04:28:45;27.92;;;15.30;;
63581;SDS011;49727;51.078;17.066;2023-02-23T04:43:45;30.50;;;15.82;;
63581;SDS011;49727;51.078;17.066;2023-02-23T04:58:46;31.70;;;16.55;;
63581;SDS011;49727;51.078;17.066;2023-02-23T05:13:46;30.55;;;16.65;;
63581;SDS011;49727;51.078;17.066;2023-02-23T05:28:46;34.35;;;16.95;;
63581;SDS011;49727;51.078;17.066;2023-02-23T05:43:48;32.15;;;15.85;;
63581;SDS011;49727;51.078;17.066;2023-02-23T05:58:53;34.45;;;17.17;;
63581;SDS011;49727;51.078;17.066;2023-02-23T06:13:57;37.33;;;18.97;;
63581;SDS011;49727;51.078;17.066;2023-02-23T06:28:58;36.28;;;20.52;;
63581;SDS011;49727;51.078;17.066;2023-02-23T06:43:58;39.70;;;20.98;;
63581;SDS011;49727;51.078;17.066;2023-02-23T06:58:59;41.22;;;18.85;;
63581;SDS011;49727;51.078;17.066;2023-02-23T07:13:59;37.47;;;19.52;;
63581;SDS011;49727;51.078;17.066;2023-02-23T07:29:01;45.53;;;20.67;;
63581;SDS011;49727;51.078;17.066;2023-02-23T07:44:02;45.90;;;22.45;;
63581;SDS011;49727;51.078;17.066;2023-02-23T07:59:03;40.05;;;21.30;;
63581;SDS011;49727;51.078;17.066;2023-02-23T08:14:03;43.25;;;21.98;;
63581;SDS011;49727;51.078;17.066;2023-02-23T08:29:04;35.35;;;20.80;;
63581;SDS011;49727;51.078;17.066;2023-02-23T08:44:04;34.85;;;19.48;;
63581;SDS011;49727;51.078;17.066;2023-02-23T08:59:05;38.97;;;20.08;;
63581;SDS011;49727;51.078;17.066;2023-02-23T09:14:05;37.22;;;20.40;;
63581;SDS011;49727;51.078;17.066;2023-02-23T09:29:07;38.90;;;20.37;;
63581;SDS011;49727;51.078;17.066;2023-02-23T09:59:20;30.83;;;18.50;;
63581;SDS011;49727;51.078;17.066;2023-02-23T10:29:41;29.73;;;18.37;;
63581;SDS011;49727;51.078;17.066;2023-02-23T10:44:44;29.83;;;17.87;;
63581;SDS011;49727;51.078;17.066;2023-02-23T11:30:24;28.57;;;17.60;;
63581;SDS011;49727;51.078;17.066;2023-02-23T12:00:56;30.70;;;17.60;;
63581;SDS011;49727;51.078;17.066;2023-02-23T12:31:21;28.38;;;18.10;;
63581;SDS011;49727;51.078;17.066;2023-02-23T12:46:30;27.67;;;16.67;;
63581;SDS011;49727;51.078;17.066;2023-02-23T13:01:49;23.90;;;15.37;;
63581;SDS011;49727;51.078;17.066;2023-02-23T13:16:56;27.50;;;15.77;;
63581;SDS011;49727;51.078;17.066;2023-02-23T13:32:03;26.83;;;16.80;;
63581;SDS011;49727;51.078;17.066;2023-02-23T13:47:15;26.93;;;15.37;;
63581;SDS011;49727;51.078;17.066;2023-02-23T14:32:27;22.90;;;13.57;;
63581;SDS011;49727;51.078;17.066;2023-02-23T14:47:29;17.50;;;11.83;;
63581;SDS011;49727;51.078;17.066;2023-02-23T15:02:55;24.47;;;13.60;;
63581;SDS011;49727;51.078;17.066;2023-02-23T15:17:58;27.23;;;14.13;;
63581;SDS011;49727;51.078;17.066;2023-02-23T15:33:08;27.37;;;15.07;;
63581;SDS011;49727;51.078;17.066;2023-02-23T15:48:15;28.93;;;15.53;;
63581;SDS011;49727;51.078;17.066;2023-02-23T16:18:39;27.57;;;17.40;;
63581;SDS011;49727;51.078;17.066;2023-02-23T16:33:43;37.63;;;19.37;;
63581;SDS011;49727;51.078;17.066;2023-02-23T16:48:50;39.90;;;21.43;;
63581;SDS011;49727;51.078;17.066;2023-02-23T17:03:50;45.42;;;24.17;;
63581;SDS011;49727;51.078;17.066;2023-02-23T17:18:52;46.13;;;24.73;;
63581;SDS011;49727;51.078;17.066;2023-02-23T17:33:53;45.38;;;26.33;;
63581;SDS011;49727;51.078;17.066;2023-02-23T17:48:54;47.28;;;25.35;;
63581;SDS011;49727;51.078;17.066;2023-02-23T18:03:54;48.70;;;25.58;;
63581;SDS011;49727;51.078;17.066;2023-02-23T18:18:57;55.60;;;28.53;;
63581;SDS011;49727;51.078;17.066;2023-02-23T18:33:58;60.30;;;30.77;;
63581;SDS011;49727;51.078;17.066;2023-02-23T18:49:00;55.97;;;29.92;;
63581;SDS011;49727;51.078;17.066;2023-02-23T19:04:01;45.95;;;24.38;;
63581;SDS011;49727;51.078;17.066;2023-02-23T19:19:03;45.25;;;24.25;;
63581;SDS011;49727;51.078;17.066;2023-02-23T19:34:05;41.70;;;22.47;;
63581;SDS011;49727;51.078;17.066;2023-02-23T19:49:07;40.83;;;21.08;;
63581;SDS011;49727;51.078;17.066;2023-02-23T20:04:08;37.60;;;21.90;;
63581;SDS011;49727;51.078;17.066;2023-02-23T20:19:09;42.67;;;21.00;;
63581;SDS011;49727;51.078;17.066;2023-02-23T20:34:11;33.53;;;20.60;;
63581;SDS011;49727;51.078;17.066;2023-02-23T20:49:12;36.27;;;20.93;;
63581;SDS011;49727;51.078;17.066;2023-02-23T21:04:13;36.87;;;21.67;;
63581;SDS011;49727;51.078;17.066;2023-02-23T21:19:14;43.85;;;23.08;;
63581;SDS011;49727;51.078;17.066;2023-02-23T21:34:15;45.73;;;24.00;;
63581;SDS011;49727;51.078;17.066;2023-02-23T21:49:19;42.07;;;25.53;;
63581;SDS011;49727;51.078;17.066;2023-02-23T22:04:19;38.67;;;20.90;;
63581;SDS011;49727;51.078;17.066;2023-02-23T22:19:19;40.92;;;22.35;;
63581;SDS011;49727;51.078;17.066;2023-02-23T22:34:20;43.78;;;21.58;;
63581;SDS011;49727;51.078;17.066;2023-02-23T22:49:21;36.08;;;20.38;;
63581;SDS011;49727;51.078;17.066;2023-02-23T23:04:22;40.97;;;23.20;;
63581;SDS011;49727;51.078;17.066;2023-02-23T23:19:22;42.00;;;23.23;;
63581;SDS011;49727;51.078;17.066;2023-02-23T23:34:23;40.97;;;22.17;;
63581;SDS011;49727;51.078;17.066;2023-02-23T23:49:24;42.83;;;22.42;;
